Time;durP1;ratioP1;P1;durP2;ratioP2;P2;SDS_P1;SDS_P2;PMS_P1;PMS_P2;Temp;Humidity;BMP_temperature;BMP_pressure;BME280_temperature;BME280_humidity;BME280_pressure;Samples;Min_cycle;Max_cycle;Signal;HPM_P1;HPM_P2
2022/01/29 00:01:35;;;;;;;7.45;4.95;;;;;;;6.83;69.60;101784.28;5073203;28;20050;-75
2022/01/29 00:04:03;;;;;;;6.60;4.28;;;;;;;6.80;69.67;101775.41;5071996;28;20504;-76
2022/01/29 00:06:30;;;;;;;7.30;4.82;;;;;;;6.82;69.55;101774.59;5073068;28;20040;-75
2022/01/29 00:08:58;;;;;;;5.88;4.07;;;;;;;6.76;69.70;101775.22;5073122;28;20119;-75
2022/01/29 00:11:30;;;;;;;6.60;4.15;;;;;;;6.74;69.77;101779.47;5085355;28;20048;-73
2022/01/29 00:13:58;;;;;;;5.72;3.78;;;;;;;6.71;69.80;101769.72;5076870;28;20482;-73
2022/01/29 00:16:27;;;;;;;6.10;4.28;;;;;;;6.73;69.62;101777.69;5055916;28;20119;-73
2022/01/29 00:18:55;;;;;;;7.10;4.07;;;;;;;6.68;69.74;101769.59;5072405;28;20040;-73
2022/01/29 00:21:22;;;;;;;7.47;4.18;;;;;;;6.67;69.75;101772.13;5090683;28;20048;-73
2022/01/29 00:23:53;;;;;;;7.40;4.50;;;;;;;6.65;69.87;101768.53;5072499;28;20048;-73
2022/01/29 00:26:22;;;;;;;9.82;6.88;;;;;;;6.63;69.77;101771.06;5072134;28;20046;-73
2022/01/29 00:28:51;;;;;;;7.93;5.47;;;;;;;6.63;69.56;101763.22;5075050;28;20111;-75
2022/01/29 00:31:19;;;;;;;7.57;4.47;;;;;;;6.63;69.66;101759.72;5056959;28;20127;-75
2022/01/29 00:33:48;;;;;;;7.22;4.63;;;;;;;6.64;69.70;101757.13;5072454;28;20446;-75
2022/01/29 00:36:16;;;;;;;7.68;5.35;;;;;;;6.64;69.91;101759.75;5094371;28;20043;-75
2022/01/29 00:38:44;;;;;;;10.05;8.02;;;;;;;6.59;69.92;101753.41;5072112;28;20044;-75
2022/01/29 00:41:11;;;;;;;9.43;6.97;;;;;;;6.53;70.16;101758.38;5072405;28;20060;-75
2022/01/29 00:43:39;;;;;;;9.40;7.93;;;;;;;6.46;70.41;101751.03;5089908;28;20085;-75
2022/01/29 00:46:07;;;;;;;9.52;7.35;;;;;;;6.49;70.59;101752.91;5072182;28;20048;-75
2022/01/29 00:48:35;;;;;;;8.38;5.43;;;;;;;6.50;70.73;101749.47;5066591;28;20044;-75
2022/01/29 00:51:04;;;;;;;11.00;7.00;;;;;;;6.50;70.58;101745.09;5088327;28;20050;-75
2022/01/29 00:53:32;;;;;;;14.77;11.18;;;;;;;6.51;70.72;101744.28;5091623;28;20112;-76
2022/01/29 00:56:05;;;;;;;16.63;8.50;;;;;;;6.50;70.88;101737.22;5080997;28;20542;-75
2022/01/29 00:58:34;;;;;;;8.55;6.72;;;;;;;6.55;71.07;101734.84;5071804;28;20115;-76
2022/01/29 01:01:03;;;;;;;9.25;6.85;;;;;;;6.59;71.18;101734.16;5071773;28;20064;-75
2022/01/29 01:03:31;;;;;;;8.98;6.72;;;;;;;6.59;71.11;101731.53;5091596;28;20056;-75
2022/01/29 01:05:59;;;;;;;9.05;6.45;;;;;;;6.56;71.25;101732.31;5076138;28;20048;-76
2022/01/29 01:08:28;;;;;;;10.15;8.32;;;;;;;6.57;71.30;101730.53;5071002;28;20491;-76
2022/01/29 01:10:56;;;;;;;13.40;9.95;;;;;;;6.57;71.35;101726.19;5087337;28;20064;-75
2022/01/29 01:13:25;;;;;;;10.75;8.00;;;;;;;6.59;71.37;101729.81;5071118;28;20518;-75
2022/01/29 01:15:53;;;;;;;9.40;6.70;;;;;;;6.57;71.42;101714.81;5071120;28;20046;-75
2022/01/29 01:18:20;;;;;;;8.32;6.07;;;;;;;6.58;71.72;101720.13;5071818;28;20035;-75
2022/01/29 01:20:48;;;;;;;8.45;6.03;;;;;;;6.64;71.70;101714.25;5086136;28;20043;-75
2022/01/29 01:23:16;;;;;;;12.63;8.23;;;;;;;6.67;71.58;101711.81;5071987;28;20430;-75
2022/01/29 01:25:45;;;;;;;11.65;7.43;;;;;;;6.66;71.76;101708.28;5100285;28;20722;-76
2022/01/29 01:28:13;;;;;;;11.13;7.45;;;;;;;6.67;71.54;101712.69;5090632;28;20043;-75
2022/01/29 01:30:41;;;;;;;9.35;6.47;;;;;;;6.65;71.52;101710.81;5108732;28;20132;-75
2022/01/29 01:33:09;;;;;;;7.38;5.35;;;;;;;6.60;71.44;101707.09;5109853;28;20069;-76
2022/01/29 01:35:42;;;;;;;7.78;4.70;;;;;;;6.56;71.28;101699.91;5095813;28;20410;-76
2022/01/29 01:38:15;;;;;;;8.10;5.82;;;;;;;6.55;71.23;101713.84;5091740;28;21068;-75
2022/01/29 01:40:47;;;;;;;9.05;5.70;;;;;;;6.53;71.28;101703.28;5091299;28;20039;-75
2022/01/29 01:43:16;;;;;;;7.13;4.22;;;;;;;6.60;71.27;101704.47;5091992;28;20044;-75
2022/01/29 01:45:43;;;;;;;10.07;8.50;;;;;;;6.63;71.42;101702.88;5091291;28;20097;-75
2022/01/29 01:48:12;;;;;;;20.17;17.55;;;;;;;6.67;71.35;101699.59;5059334;28;20511;-75
2022/01/29 01:50:40;;;;;;;11.98;10.52;;;;;;;6.69;71.35;101690.06;5086106;28;20085;-79
2022/01/29 01:53:08;;;;;;;11.85;8.98;;;;;;;6.71;71.50;101680.53;5071178;28;20403;-75
2022/01/29 01:55:36;;;;;;;11.15;7.40;;;;;;;6.74;71.48;101679.78;5098670;27;20035;-76
2022/01/29 01:58:04;;;;;;;10.57;8.98;;;;;;;6.70;71.32;101678.72;5096282;28;20071;-76
2022/01/29 02:00:34;;;;;;;12.25;10.98;;;;;;;6.69;71.44;101668.19;5089058;28;20437;-76
2022/01/29 02:03:02;;;;;;;9.20;7.10;;;;;;;6.70;71.40;101667.31;5088796;28;20055;-75
2022/01/29 02:05:29;;;;;;;11.20;7.30;;;;;;;6.70;71.36;101655.09;5087683;28;20044;-75
2022/01/29 02:07:58;;;;;;;29.05;25.25;;;;;;;6.67;71.15;101659.34;5087839;28;20043;-75
2022/01/29 02:10:27;;;;;;;21.65;16.27;;;;;;;6.60;71.21;101655.53;5088820;28;20557;-76
2022/01/29 02:12:59;;;;;;;91.55;67.75;;;;;;;6.50;71.22;101658.53;5087366;28;20052;-76
2022/01/29 02:15:28;;;;;;;96.22;64.20;;;;;;;6.48;71.19;101654.06;5087712;28;20040;-75
2022/01/29 02:17:57;;;;;;;104.75;63.90;;;;;;;6.46;71.34;101656.63;5088313;28;20054;-75
2022/01/29 02:20:27;;;;;;;235.70;147.48;;;;;;;6.41;71.37;101647.66;5087573;28;20104;-75
2022/01/29 02:22:57;;;;;;;134.90;82.40;;;;;;;6.41;71.36;101652.91;5086976;28;20139;-75
2022/01/29 02:25:37;;;;;;;59.83;37.08;;;;;;;6.46;71.47;101650.47;5086331;28;20036;-75
2022/01/29 02:28:07;;;;;;;34.72;28.10;;;;;;;6.44;71.47;101646.88;5087042;28;20052;-76
2022/01/29 02:30:38;;;;;;;39.75;35.80;;;;;;;6.37;71.61;101645.69;5089004;28;20036;-75
2022/01/29 02:33:09;;;;;;;11.45;8.05;;;;;;;6.33;71.77;101649.00;5086927;28;20040;-75
2022/01/29 02:35:40;;;;;;;8.82;6.03;;;;;;;6.30;72.01;101644.50;5087411;28;20388;-75
2022/01/29 02:38:09;;;;;;;11.60;6.05;;;;;;;6.32;72.33;101640.25;5088523;28;20445;-76
2022/01/29 02:40:44;;;;;;;6.90;4.75;;;;;;;6.40;72.50;101641.50;5087212;28;20074;-75
2022/01/29 02:43:14;;;;;;;7.80;4.95;;;;;;;6.48;72.39;101638.34;5086719;28;20047;-75
2022/01/29 02:45:43;;;;;;;9.50;6.18;;;;;;;6.46;72.35;101637.34;5088749;28;20593;-76
2022/01/29 02:48:11;;;;;;;10.00;4.43;;;;;;;6.29;72.28;101636.59;5088358;28;20549;-77
2022/01/29 02:50:40;;;;;;;8.93;5.45;;;;;;;6.12;72.56;101641.03;5088353;28;20032;-75
2022/01/29 02:53:09;;;;;;;12.00;6.40;;;;;;;6.05;73.12;101633.69;5115164;28;20047;-75
2022/01/29 02:55:37;;;;;;;10.85;5.88;;;;;;;6.09;73.44;101633.03;5087943;28;20033;-75
2022/01/29 02:58:05;;;;;;;7.93;4.75;;;;;;;6.21;73.50;101635.31;5069331;28;20051;-75
2022/01/29 03:00:33;;;;;;;9.18;5.47;;;;;;;6.24;73.68;101638.97;5088229;28;20036;-75
2022/01/29 03:03:01;;;;;;;12.88;8.77;;;;;;;6.27;73.57;101635.63;5086972;28;20051;-75
2022/01/29 03:05:28;;;;;;;10.18;5.68;;;;;;;6.39;73.72;101633.56;5088137;28;20059;-74
2022/01/29 03:07:56;;;;;;;8.38;5.30;;;;;;;6.53;73.53;101621.97;5102083;28;20039;-76
2022/01/29 03:10:25;;;;;;;9.73;4.90;;;;;;;6.70;73.29;101630.59;5072765;28;20040;-76
2022/01/29 03:12:53;;;;;;;9.05;6.30;;;;;;;6.77;73.31;101619.56;5085894;28;20040;-75
2022/01/29 03:15:22;;;;;;;6.43;3.88;;;;;;;6.84;73.35;101623.34;5087861;28;20043;-75
2022/01/29 03:17:50;;;;;;;6.03;3.63;;;;;;;6.96;73.79;101623.88;5088764;28;20109;-75
2022/01/29 03:20:17;;;;;;;6.38;3.13;;;;;;;7.09;73.73;101618.34;5086954;28;20039;-75
2022/01/29 03:22:45;;;;;;;6.40;3.33;;;;;;;7.18;73.87;101617.00;5086765;28;20127;-76
2022/01/29 03:25:13;;;;;;;6.43;3.17;;;;;;;7.28;73.97;101626.19;5072393;28;20089;-75
2022/01/29 03:27:42;;;;;;;4.22;2.65;;;;;;;7.36;74.11;101631.75;5069795;28;20048;-75
2022/01/29 03:30:11;;;;;;;4.97;3.00;;;;;;;7.42;73.99;101626.75;5086424;28;20095;-76
2022/01/29 03:32:38;;;;;;;5.35;3.15;;;;;;;7.45;73.92;101619.91;5087985;28;20658;-75
2022/01/29 03:35:07;;;;;;;5.40;2.53;;;;;;;7.50;73.87;101625.34;5095837;28;20102;-75
2022/01/29 03:37:35;;;;;;;4.82;2.88;;;;;;;7.52;73.70;101623.69;5089754;28;20119;-75
2022/01/29 03:40:05;;;;;;;5.60;3.22;;;;;;;7.56;73.64;101630.84;5072386;28;20048;-75
2022/01/29 03:42:38;;;;;;;7.45;3.67;;;;;;;7.59;73.63;101618.75;5088259;28;20492;-74
2022/01/29 03:45:09;;;;;;;8.63;3.70;;;;;;;7.63;73.50;101621.50;5099497;27;20528;-75
2022/01/29 03:47:37;;;;;;;6.35;2.97;;;;;;;7.65;73.48;101626.00;5083468;28;20123;-75
2022/01/29 03:50:06;;;;;;;5.45;2.92;;;;;;;7.69;73.63;101627.91;5091271;28;20131;-75
2022/01/29 03:52:33;;;;;;;6.90;3.35;;;;;;;7.70;73.67;101620.91;5091467;28;20453;-75
2022/01/29 03:55:01;;;;;;;6.32;3.10;;;;;;;7.74;73.46;101625.47;5089722;28;20048;-75
2022/01/29 03:57:29;;;;;;;5.18;3.30;;;;;;;7.81;73.48;101623.13;5088238;28;20041;-75
2022/01/29 03:59:57;;;;;;;4.65;3.17;;;;;;;7.85;73.34;101632.06;5089628;28;20055;-74
2022/01/29 04:02:26;;;;;;;5.93;3.63;;;;;;;7.87;73.46;101626.03;5094135;28;20040;-75
2022/01/29 04:04:53;;;;;;;8.55;3.90;;;;;;;7.84;73.31;101639.03;5089536;28;20040;-75
2022/01/29 04:07:22;;;;;;;5.47;3.70;;;;;;;7.79;73.39;101632.72;5089787;28;20496;-75
2022/01/29 04:09:51;;;;;;;5.22;3.00;;;;;;;7.81;73.65;101631.03;5091377;28;20044;-76
2022/01/29 04:12:19;;;;;;;5.47;3.65;;;;;;;7.82;73.60;101627.56;5089428;28;20063;-76
2022/01/29 04:14:46;;;;;;;7.22;3.85;;;;;;;7.80;73.55;101624.00;5089661;28;20044;-76
2022/01/29 04:17:14;;;;;;;4.97;3.28;;;;;;;7.78;73.71;101632.66;5091124;28;20044;-76
2022/01/29 04:19:43;;;;;;;7.07;4.00;;;;;;;7.78;73.51;101616.88;5099407;28;20093;-75
2022/01/29 04:22:11;;;;;;;5.55;3.53;;;;;;;7.71;73.68;101625.34;5089344;28;20131;-76
2022/01/29 04:24:39;;;;;;;6.95;3.25;;;;;;;7.69;73.75;101625.28;5107932;27;20043;-76
2022/01/29 04:27:15;;;;;;;6.57;2.92;;;;;;;7.68;73.84;101618.22;5089361;28;20040;-76
2022/01/29 04:29:54;;;;;;;5.55;3.30;;;;;;;7.74;73.79;101625.47;5090683;28;20054;-76
2022/01/29 04:32:29;;;;;;;4.53;2.83;;;;;;;7.78;73.94;101635.28;5090279;28;20082;-75
2022/01/29 04:34:58;;;;;;;4.88;3.08;;;;;;;7.84;73.81;101630.25;5086962;28;20551;-76
2022/01/29 04:37:26;;;;;;;4.95;3.08;;;;;;;7.90;73.68;101633.13;5088892;28;20556;-76
2022/01/29 04:39:53;;;;;;;6.05;3.10;;;;;;;7.93;73.52;101634.16;5090791;28;20040;-75
2022/01/29 04:42:21;;;;;;;5.70;3.15;;;;;;;7.96;73.40;101633.38;5089114;28;20093;-76
2022/01/29 04:44:48;;;;;;;5.80;3.15;;;;;;;7.98;73.14;101632.63;5090963;28;20059;-76
2022/01/29 04:47:16;;;;;;;6.45;3.13;;;;;;;8.02;73.24;101631.00;5105855;28;20064;-75
2022/01/29 04:49:43;;;;;;;5.43;2.83;;;;;;;8.04;73.10;101631.06;5101533;28;20036;-75
2022/01/29 04:52:13;;;;;;;4.07;2.22;;;;;;;8.07;72.96;101631.19;5090670;28;20411;-76
2022/01/29 04:54:40;;;;;;;3.90;2.58;;;;;;;8.08;73.02;101631.22;5090204;28;20067;-76
2022/01/29 04:57:08;;;;;;;6.25;3.38;;;;;;;8.08;72.92;101638.22;5090338;28;20503;-75
2022/01/29 04:59:36;;;;;;;4.95;3.13;;;;;;;8.07;72.89;101637.34;5087483;28;20042;-75
2022/01/29 05:02:04;;;;;;;4.97;3.42;;;;;;;8.07;72.98;101633.81;5090146;28;20124;-75
2022/01/29 05:04:32;;;;;;;6.13;2.40;;;;;;;8.07;72.90;101628.56;5088441;28;20044;-75
2022/01/29 05:06:59;;;;;;;4.97;2.88;;;;;;;8.09;73.06;101629.50;5090044;28;20032;-76
2022/01/29 05:09:28;;;;;;;5.38;3.05;;;;;;;8.11;73.04;101630.47;5088344;28;20036;-76
2022/01/29 05:11:58;;;;;;;5.47;3.00;;;;;;;8.13;72.90;101631.44;5090589;28;20495;-75
2022/01/29 05:14:35;;;;;;;6.00;3.55;;;;;;;8.15;72.94;101628.00;5089171;28;20050;-76
2022/01/29 05:28:13;;;;;;;;;;;;;;;8.23;73.23;101625.69;5103870;28;20411;-76
2022/01/29 05:30:40;;;;;;;4.82;3.00;;;;;;;8.26;73.01;101629.34;5100306;28;20011;-76
2022/01/29 05:33:08;;;;;;;6.72;3.25;;;;;;;8.28;72.95;101622.38;5087318;28;20044;-76
2022/01/29 05:35:37;;;;;;;6.15;3.60;;;;;;;8.31;72.90;101626.91;5101306;28;20086;-76
2022/01/29 05:38:05;;;;;;;5.32;2.90;;;;;;;8.33;72.99;101627.88;5085026;28;20041;-76
2022/01/29 05:40:33;;;;;;;5.53;3.00;;;;;;;8.36;72.60;101631.50;5104294;28;20643;-75
2022/01/29 05:43:01;;;;;;;9.15;3.30;;;;;;;8.42;72.79;101625.56;5114195;28;20064;-75
2022/01/29 05:45:29;;;;;;;5.28;2.63;;;;;;;8.45;72.66;101625.72;5097617;28;20044;-75
2022/01/29 05:47:57;;;;;;;7.20;2.95;;;;;;;8.49;72.50;101630.25;5099505;28;20123;-76
2022/01/29 05:50:25;;;;;;;5.18;3.10;;;;;;;8.52;72.61;101619.84;5085878;28;20491;-76
2022/01/29 05:52:54;;;;;;;4.18;2.53;;;;;;;8.59;72.50;101620.97;5093571;28;20050;-76
2022/01/29 05:55:22;;;;;;;5.65;2.50;;;;;;;8.66;72.29;101631.75;5104773;28;20040;-75
2022/01/29 05:57:50;;;;;;;6.47;2.92;;;;;;;8.73;72.26;101627.63;5104657;28;20047;-75
2022/01/29 06:00:18;;;;;;;5.57;3.10;;;;;;;8.80;72.19;101624.38;5102492;28;20045;-75
2022/01/29 06:02:45;;;;;;;4.80;2.95;;;;;;;8.83;72.17;101632.41;5088293;28;20549;-75
2022/01/29 06:05:13;;;;;;;5.85;3.10;;;;;;;8.87;72.16;101629.03;5095280;28;20047;-75
2022/01/29 06:07:40;;;;;;;5.22;3.53;;;;;;;8.93;72.14;101620.44;5084950;28;20067;-76
2022/01/29 06:10:11;;;;;;;6.35;2.70;;;;;;;9.02;72.02;101626.03;5091803;28;20400;-75
2022/01/29 06:12:39;;;;;;;4.15;2.13;;;;;;;9.26;71.98;101632.16;5102188;28;20036;-75
2022/01/29 06:15:07;;;;;;;4.25;2.15;;;;;;;9.49;71.47;101622.44;5099368;28;20527;-76
2022/01/29 06:17:35;;;;;;;3.58;2.38;;;;;;;9.78;71.33;101624.28;5075922;28;20041;-76
2022/01/29 06:20:02;;;;;;;4.82;2.30;;;;;;;10.15;70.94;101634.28;5082912;28;20117;-76
2022/01/29 06:22:30;;;;;;;5.35;2.70;;;;;;;10.55;70.50;101628.50;5085050;28;20431;-76
2022/01/29 06:24:58;;;;;;;4.57;2.05;;;;;;;10.87;69.07;101620.59;5100271;28;20101;-76
2022/01/29 06:27:27;;;;;;;4.65;2.92;;;;;;;11.13;68.04;101624.84;5071646;28;20098;-76
2022/01/29 06:29:55;;;;;;;5.55;2.65;;;;;;;11.20;67.71;101618.88;5069283;28;20097;-76
2022/01/29 06:32:22;;;;;;;4.45;2.35;;;;;;;11.37;66.96;101625.50;5071684;28;20189;-76
2022/01/29 06:34:50;;;;;;;3.95;2.00;;;;;;;11.55;66.24;101622.44;5077166;28;20055;-75
2022/01/29 06:37:17;;;;;;;3.33;2.10;;;;;;;11.76;65.42;101619.44;5069211;28;20064;-76
2022/01/29 06:39:45;;;;;;;3.97;2.05;;;;;;;12.00;64.57;101624.47;5058364;28;20123;-76
2022/01/29 06:42:13;;;;;;;3.92;1.55;;;;;;;12.20;63.61;101618.78;5058527;28;20117;-76
2022/01/29 06:44:42;;;;;;;3.25;1.67;;;;;;;12.34;63.15;101629.66;5076439;28;20082;-74
2022/01/29 06:47:10;;;;;;;3.03;1.70;;;;;;;12.35;63.48;101629.69;5087171;28;20047;-73
2022/01/29 06:49:37;;;;;;;3.00;1.70;;;;;;;12.56;63.04;101625.72;5069855;28;20037;-76
2022/01/29 06:52:06;;;;;;;2.85;1.58;;;;;;;12.76;61.84;101627.03;5070645;28;20090;-73
2022/01/29 06:54:34;;;;;;;3.55;1.90;;;;;;;12.78;61.67;101618.25;5058620;28;20142;-73
2022/01/29 06:57:01;;;;;;;2.80;1.67;;;;;;;12.89;61.21;101618.47;5051369;28;20041;-74
2022/01/29 06:59:29;;;;;;;2.75;1.50;;;;;;;12.97;61.24;101627.47;5050587;28;20045;-73
2022/01/29 07:01:58;;;;;;;4.30;2.15;;;;;;;12.94;60.88;101618.53;5056867;28;20497;-73
2022/01/29 07:04:26;;;;;;;3.63;1.55;;;;;;;13.14;60.91;101617.22;5071322;28;20059;-73
2022/01/29 07:06:53;;;;;;;4.10;1.95;;;;;;;13.19;60.35;101614.66;5085981;28;20052;-73
2022/01/29 07:09:21;;;;;;;4.63;1.70;;;;;;;13.14;59.21;101622.50;5069764;28;20036;-73
2022/01/29 07:11:55;;;;;;;8.15;3.53;;;;;;;13.05;59.10;101617.03;5081932;28;20059;-73
2022/01/29 07:14:23;;;;;;;6.10;2.85;;;;;;;12.95;59.39;101623.88;5084426;28;20044;-76
2022/01/29 07:16:50;;;;;;;9.43;3.65;;;;;;;12.90;59.46;101624.66;5069532;28;20076;-76
2022/01/29 07:19:20;;;;;;;3.58;1.85;;;;;;;12.99;59.50;101622.22;5068862;28;20041;-73
2022/01/29 07:21:47;;;;;;;4.35;1.67;;;;;;;13.29;58.93;101625.47;5064797;28;20129;-73
2022/01/29 07:24:15;;;;;;;2.17;1.23;;;;;;;13.64;58.18;101625.19;5070104;28;20098;-73
2022/01/29 07:26:43;;;;;;;5.72;2.08;;;;;;;13.98;57.23;101635.47;5060348;28;20042;-73
2022/01/29 07:29:10;;;;;;;4.00;1.80;;;;;;;14.23;56.50;101626.13;5061861;28;20051;-73
2022/01/29 07:31:39;;;;;;;3.72;1.55;;;;;;;14.48;55.53;101633.59;5063201;28;20068;-74
2022/01/29 07:34:06;;;;;;;3.78;2.13;;;;;;;14.62;55.16;101623.16;5059725;28;20060;-74
2022/01/29 07:36:36;;;;;;;3.58;2.30;;;;;;;14.73;54.76;101625.06;5065014;28;20458;-75
2022/01/29 07:39:03;;;;;;;3.97;2.10;;;;;;;14.96;54.53;101625.38;5062170;28;20037;-75
2022/01/29 07:41:33;;;;;;;5.10;2.10;;;;;;;15.15;53.92;101630.00;5057349;28;20032;-75
2022/01/29 07:44:06;;;;;;;2.97;1.75;;;;;;;15.40;53.52;101630.25;5066005;28;20123;-75
2022/01/29 07:46:34;;;;;;;3.55;1.75;;;;;;;15.59;52.64;101628.69;5060522;28;20399;-75
2022/01/29 07:49:01;;;;;;;3.83;1.50;;;;;;;15.54;51.32;101623.34;5075959;28;20075;-74
2022/01/29 07:51:29;;;;;;;2.45;1.42;;;;;;;15.45;51.48;101623.19;5083523;28;20057;-74
2022/01/29 07:53:58;;;;;;;5.35;1.58;;;;;;;15.40;50.93;101614.28;5066592;28;20056;-74
2022/01/29 07:56:26;;;;;;;2.58;1.40;;;;;;;15.54;50.45;101618.00;5067619;28;20396;-74
2022/01/29 07:58:53;;;;;;;3.78;1.48;;;;;;;15.64;50.05;101622.53;5062294;28;20045;-75
2022/01/29 08:01:21;;;;;;;2.85;1.45;;;;;;;15.63;50.33;101611.84;5062280;28;20049;-74
2022/01/29 08:03:50;;;;;;;3.72;1.60;;;;;;;15.63;50.47;101622.50;5081386;28;20044;-75
2022/01/29 08:06:20;;;;;;;6.65;2.60;;;;;;;15.73;51.01;101614.63;5067789;28;20047;-74
2022/01/29 08:08:47;;;;;;;6.40;2.10;;;;;;;15.71;50.30;101620.81;5052793;28;20044;-74
2022/01/29 08:11:17;;;;;;;5.82;2.85;;;;;;;15.72;50.36;101612.84;5068280;28;20133;-74
2022/01/29 08:13:46;;;;;;;25.20;12.57;;;;;;;15.65;49.91;101616.31;5068664;28;20049;-74
2022/01/29 08:16:14;;;;;;;49.53;24.02;;;;;;;15.84;50.43;101620.03;5068341;28;20045;-74
2022/01/29 08:18:43;;;;;;;13.68;7.45;;;;;;;16.09;50.16;101621.09;5067304;28;20049;-74
2022/01/29 08:21:13;;;;;;;3.90;1.90;;;;;;;16.22;49.42;101613.19;5069565;28;20052;-75
2022/01/29 08:23:41;;;;;;;5.53;2.58;;;;;;;16.34;49.20;101610.59;5069482;28;20060;-74
2022/01/29 08:26:09;;;;;;;19.38;8.10;;;;;;;16.51;48.76;101616.03;5069824;28;20470;-75
2022/01/29 08:28:38;;;;;;;8.68;5.13;;;;;;;16.64;49.48;101612.56;5069677;28;20045;-75
2022/01/29 08:31:06;;;;;;;8.10;4.18;;;;;;;16.79;48.79;101614.41;5069254;28;20143;-75
2022/01/29 08:33:34;;;;;;;3.25;1.42;;;;;;;16.92;47.40;101615.34;5084977;28;20051;-74
2022/01/29 08:36:03;;;;;;;2.35;1.27;;;;;;;16.94;47.76;101618.88;5081020;28;20033;-75
2022/01/29 08:38:31;;;;;;;2.80;1.50;;;;;;;16.93;48.23;101611.81;5049259;28;20057;-74
2022/01/29 08:40:58;;;;;;;3.17;1.70;;;;;;;16.75;48.39;101617.94;5064960;28;20041;-75
2022/01/29 08:43:27;;;;;;;3.53;1.88;;;;;;;16.41;48.24;101621.31;5064856;28;20043;-74
2022/01/29 08:45:56;;;;;;;3.08;1.30;;;;;;;16.08;48.68;101612.19;5064642;28;20053;-74
2022/01/29 08:48:24;;;;;;;3.92;1.38;;;;;;;15.97;48.64;101613.03;5048190;28;20065;-74
2022/01/29 08:50:52;;;;;;;6.53;3.95;;;;;;;16.21;48.89;101615.88;5064906;28;20041;-74
2022/01/29 08:53:20;;;;;;;17.42;9.70;;;;;;;16.49;48.99;101614.22;5067276;28;20511;-74
2022/01/29 08:55:48;;;;;;;13.93;5.97;;;;;;;16.42;48.92;101605.31;5064816;28;20127;-75
2022/01/29 08:58:15;;;;;;;2.38;1.70;;;;;;;16.26;48.29;101606.13;5084991;28;20094;-74
2022/01/29 09:00:46;;;;;;;5.25;1.77;;;;;;;16.14;48.68;101598.97;5066987;28;20089;-74
2022/01/29 09:03:17;;;;;;;2.50;1.40;;;;;;;16.33;49.18;101586.63;5068469;28;20097;-76
2022/01/29 09:05:46;;;;;;;4.53;2.10;;;;;;;16.46;49.33;101588.47;5068991;28;20085;-74
2022/01/29 09:08:16;;;;;;;1.45;0.80;;;;;;;16.25;49.15;101588.34;5094570;28;20556;-74
2022/01/29 09:10:44;;;;;;;3.83;1.73;;;;;;;15.98;49.04;101589.06;5084272;28;20046;-75
2022/01/29 09:13:12;;;;;;;2.97;1.20;;;;;;;15.91;49.07;101587.25;5068819;28;20160;-74
2022/01/29 09:15:40;;;;;;;3.83;1.00;;;;;;;16.16;49.06;101573.19;5077885;28;20032;-74
2022/01/29 09:18:08;;;;;;;2.50;1.25;;;;;;;16.40;48.97;101569.78;5066492;28;20051;-75
2022/01/29 09:20:37;;;;;;;4.10;1.60;;;;;;;16.65;48.53;101568.13;5050076;28;20133;-74
2022/01/29 09:23:05;;;;;;;4.15;2.08;;;;;;;16.84;47.79;101572.66;5080746;28;20110;-74
2022/01/29 09:25:35;;;;;;;2.60;1.02;;;;;;;16.98;47.37;101562.00;5068031;28;20588;-75
2022/01/29 09:28:04;;;;;;;1.63;0.93;;;;;;;17.11;46.67;101564.72;5068758;28;20044;-74
2022/01/29 09:30:31;;;;;;;1.98;0.93;;;;;;;17.16;46.77;101554.03;5067079;28;20510;-75
2022/01/29 09:32:59;;;;;;;2.05;0.88;;;;;;;17.34;46.49;101550.47;5069079;28;20565;-74
2022/01/29 09:35:28;;;;;;;2.42;1.40;;;;;;;17.45;46.12;101552.28;5068101;28;20118;-74
2022/01/29 09:37:57;;;;;;;3.08;1.20;;;;;;;17.45;45.80;101541.63;5066590;28;20115;-74
2022/01/29 09:40:25;;;;;;;3.88;1.55;;;;;;;17.58;46.08;101536.25;5066331;28;20040;-75
2022/01/29 09:42:53;;;;;;;2.15;1.10;;;;;;;17.67;46.09;101542.50;5084172;28;20048;-74
2022/01/29 09:45:24;;;;;;;3.30;1.02;;;;;;;17.67;45.30;101533.59;5068349;28;20128;-74
2022/01/29 09:48:01;;;;;;;4.13;1.60;;;;;;;17.76;45.04;101533.59;5063789;28;20132;-75
2022/01/29 09:50:30;;;;;;;1.70;1.02;;;;;;;17.84;45.31;101524.69;5047329;28;20037;-74
2022/01/29 09:53:00;;;;;;;3.10;1.73;;;;;;;17.77;44.69;101525.59;5031178;28;20053;-74
2022/01/29 09:55:29;;;;;;;3.45;1.50;;;;;;;17.66;44.99;101526.47;5048442;28;20041;-74
2022/01/29 09:57:58;;;;;;;2.25;1.02;;;;;;;17.57;44.77;101526.47;5051841;28;20123;-74
2022/01/29 10:00:26;;;;;;;1.92;1.10;;;;;;;17.49;44.06;101529.13;5083698;28;20087;-74
2022/01/29 10:03:16;;;;;;;2.72;1.33;;;;;;;17.60;44.24;101521.09;5047001;28;20049;-74
2022/01/29 10:05:45;;;;;;;2.50;1.00;;;;;;;17.66;44.49;101521.13;5050590;28;20052;-74
2022/01/29 10:08:15;;;;;;;2.53;1.25;;;;;;;17.75;44.15;101519.34;5067897;28;20155;-75
2022/01/29 10:10:44;;;;;;;1.13;0.93;;;;;;;17.86;43.58;101516.66;5050645;28;20120;-74
2022/01/29 10:13:30;;;;;;;3.55;1.38;;;;;;;17.89;44.13;101506.88;5052194;28;20056;-75
2022/01/29 10:16:07;;;;;;;7.03;1.40;;;;;;;17.87;43.86;101505.06;5066921;28;20057;-76
2022/01/29 10:18:35;;;;;;;4.90;1.40;;;;;;;17.75;43.93;101505.09;5051066;28;20052;-74
2022/01/29 10:21:15;;;;;;;2.03;1.15;;;;;;;17.83;44.13;101506.00;5052189;28;20053;-75
2022/01/29 10:23:46;;;;;;;2.90;1.38;;;;;;;17.80;44.34;101490.84;5067204;28;20392;-74
2022/01/29 10:26:27;;;;;;;3.05;1.40;;;;;;;17.80;44.83;101497.97;5066711;28;20041;-74
2022/01/29 10:28:56;;;;;;;1.67;0.95;;;;;;;17.72;44.78;101491.78;5051818;28;20045;-74
2022/01/29 10:31:24;;;;;;;2.50;1.42;;;;;;;17.64;44.69;101482.88;5051535;28;20087;-74
2022/01/29 10:33:52;;;;;;;2.60;1.25;;;;;;;17.40;44.48;101476.63;5052209;28;20091;-74
2022/01/29 10:36:20;;;;;;;4.88;2.03;;;;;;;17.21;45.12;101466.84;5079709;28;20479;-74
2022/01/29 10:38:53;;;;;;;2.13;1.42;;;;;;;17.05;45.33;101466.00;5078960;28;20055;-74
2022/01/29 10:41:25;;;;;;;8.18;4.75;;;;;;;16.91;45.57;101469.53;5088162;28;20048;-74
2022/01/29 10:43:58;;;;;;;4.95;2.63;;;;;;;16.69;45.61;101452.59;5068126;28;20055;-74
2022/01/29 10:46:28;;;;;;;4.35;2.25;;;;;;;16.55;45.63;101454.31;5069942;28;20090;-74
2022/01/29 10:48:56;;;;;;;6.57;3.05;;;;;;;16.55;45.46;101451.66;5083412;28;20048;-74
2022/01/29 10:51:24;;;;;;;7.38;3.72;;;;;;;16.58;45.65;101451.66;5075213;28;20039;-74
2022/01/29 10:53:53;;;;;;;5.45;2.22;;;;;;;16.61;45.98;101452.59;5069097;28;22237;-74
2022/01/29 10:56:22;;;;;;;2.53;1.60;;;;;;;16.54;46.30;101442.75;5047027;28;20400;-75
2022/01/29 10:58:52;;;;;;;3.80;1.95;;;;;;;16.46;46.35;101443.66;5066022;28;20563;-74
2022/01/29 11:01:23;;;;;;;4.63;2.33;;;;;;;16.36;46.76;101442.72;5068224;28;20040;-74
2022/01/29 11:03:54;;;;;;;3.33;1.83;;;;;;;16.33;47.30;101427.63;5064099;28;20036;-74
2022/01/29 11:06:29;;;;;;;4.03;1.50;;;;;;;16.22;47.54;101421.34;5060914;28;20040;-74
2022/01/29 11:08:59;;;;;;;2.92;1.80;;;;;;;16.12;47.18;101418.66;5067339;28;20040;-74
2022/01/29 11:11:29;;;;;;;2.53;1.25;;;;;;;16.07;47.40;101417.78;5064308;28;20076;-74
2022/01/29 11:13:57;;;;;;;3.28;1.55;;;;;;;16.02;47.31;101406.19;5060766;28;20045;-74
2022/01/29 11:16:25;;;;;;;3.78;1.48;;;;;;;15.97;47.32;101399.97;5056397;28;20044;-73
2022/01/29 11:18:53;;;;;;;2.95;0.90;;;;;;;16.01;47.09;101388.47;5059362;28;20164;-75
2022/01/29 11:21:21;;;;;;;2.92;1.40;;;;;;;16.10;47.02;101381.38;5066250;28;20527;-74
2022/01/29 11:23:49;;;;;;;2.40;1.10;;;;;;;16.13;46.92;101375.16;5062850;28;20541;-75
2022/01/29 11:26:18;;;;;;;1.75;1.02;;;;;;;16.11;47.01;101371.59;5063744;28;20419;-76
2022/01/29 11:28:45;;;;;;;3.08;1.10;;;;;;;16.06;46.91;101365.38;5073781;28;20082;-74
2022/01/29 11:31:22;;;;;;;1.55;1.10;;;;;;;16.00;46.64;101368.03;5075045;28;20044;-74
2022/01/29 11:34:22;;;;;;;4.75;1.00;;;;;;;15.99;46.60;101355.59;5081792;28;20052;-76
2022/01/29 11:37:07;;;;;;;1.90;1.20;;;;;;;16.02;46.50;101355.59;5065876;28;20040;-73
2022/01/29 11:39:36;;;;;;;2.28;1.10;;;;;;;16.05;46.13;101351.16;5055411;28;20051;-73
2022/01/29 11:42:32;;;;;;;2.90;1.13;;;;;;;16.10;45.94;101343.19;5054883;28;20045;-75
2022/01/29 11:45:35;;;;;;;2.25;1.13;;;;;;;16.11;46.21;101347.63;5068547;28;20072;-74
2022/01/29 11:48:03;;;;;;;3.53;0.77;;;;;;;16.17;46.32;101339.66;5065605;28;20067;-75
2022/01/29 11:50:57;;;;;;;3.17;1.15;;;;;;;16.26;46.55;101342.34;5046653;28;20622;-75